Current | Forecast
Updated: 5:00 PM EEST on June 29, 2017
Observed at Boryspil', Ukraine
Temperature 32°C
Humidity 31%
Dew Point 13°C
Wind South at 32 km/h
Pressure 1006 hPa (Falling)
Conditions Clear
Visibility -
UV N/A
Clouds
Yesterday's Maximum 29°C
Yesterday's Minimum 12°C approx.
Yesterday's Cooling Degree Days 4 approx.
Sunrise4:48 AM EEST
Sunset9:10 PM EEST
Moon Rise11:11 AM EEST
Moon Set12:02 AM EEST
Moon PhaseMoon Phase
Waxing Crescent
Raw METARMETAR UKBB 291400Z 19009MPS CAVOK 32/13 Q1006 R88/CLRD// NOSIG


Monday
. High: 62° F.
Tuesday
. High: 64° F.
Wednesday
. High: 64° F.
Thursday
. High: 69° F.
Friday
. High: 60° F.
Saturday
. High: 66° F.
Sunday
. High: 66° F.
Monday
. High: 73° F.

Units: English | Metric

Find the Weather for any City, State or Zipcode, or Country:

U.S. State List | Severe Weather | Tropical Storms | Ski Conditions
United States | Canada | Central America | South America | Asia | Europe | Australia | Africa | Islands

Weather Underground

© Copyright 2017
The Weather Company, LLC